createdAt,value
2023-02-27T00:01:13.913Z,2.78
2023-02-27T00:03:41.000Z,2.63
2023-02-27T00:06:09.421Z,2.42
2023-02-27T00:08:36.470Z,2.45
2023-02-27T00:11:03.606Z,2.60
2023-02-27T00:13:30.635Z,2.67
2023-02-27T00:15:57.786Z,2.53
2023-02-27T00:18:25.002Z,2.92
2023-02-27T00:20:51.954Z,2.50
2023-02-27T00:23:20.349Z,2.92
2023-02-27T00:25:47.406Z,2.70
2023-02-27T00:28:14.371Z,2.72
2023-02-27T00:30:41.559Z,2.80
2023-02-27T00:33:08.712Z,1.98
2023-02-27T00:35:35.841Z,2.45
2023-02-27T00:38:03.221Z,2.22
2023-02-27T00:40:31.884Z,2.47
2023-02-27T00:42:58.983Z,2.38
2023-02-27T00:45:26.086Z,2.35
2023-02-27T00:47:53.298Z,2.33
2023-02-27T00:50:28.631Z,3.22
2023-02-27T00:52:55.686Z,3.08
2023-02-27T00:55:22.722Z,2.10
2023-02-27T00:57:51.252Z,2.20
2023-02-27T01:00:19.004Z,2.35
2023-02-27T01:02:53.417Z,2.30
2023-02-27T01:05:20.545Z,2.35
2023-02-27T01:07:47.639Z,2.28
2023-02-27T01:10:15.305Z,2.20
2023-02-27T01:12:42.356Z,2.00
2023-02-27T01:15:12.621Z,2.22
2023-02-27T01:17:39.720Z,2.40
2023-02-27T01:20:08.685Z,2.20
2023-02-27T01:22:36.291Z,2.10
2023-02-27T01:25:03.942Z,2.20
2023-02-27T01:27:31.023Z,2.50
2023-02-27T01:29:58.084Z,2.15
2023-02-27T01:32:26.664Z,2.40
2023-02-27T01:34:53.734Z,2.60
2023-02-27T01:37:20.687Z,2.30
2023-02-27T01:39:47.665Z,2.10
2023-02-27T01:42:20.020Z,2.63
2023-02-27T01:45:24.442Z,2.30
2023-02-27T01:47:56.814Z,2.25
2023-02-27T01:50:24.726Z,2.47
2023-02-27T01:52:56.656Z,2.42
2023-02-27T01:55:25.796Z,2.65
2023-02-27T01:57:53.761Z,2.53
2023-02-27T02:00:22.972Z,2.40
2023-02-27T02:02:59.385Z,2.63
2023-02-27T02:05:26.899Z,2.15
2023-02-27T02:07:54.888Z,2.50
2023-02-27T02:10:22.480Z,2.50
2023-02-27T02:12:50.487Z,2.85
2023-02-27T02:15:17.818Z,2.22
2023-02-27T02:17:51.929Z,2.60
2023-02-27T02:21:04.384Z,2.40
2023-02-27T02:24:18.272Z,2.33
2023-02-27T02:26:53.244Z,1.92
2023-02-27T02:32:42.608Z,2.50
2023-02-27T02:36:18.953Z,2.67
2023-02-27T02:39:25.289Z,1.70
2023-02-27T02:42:04.555Z,2.22
2023-02-27T02:44:39.702Z,2.40
2023-02-27T02:47:17.975Z,2.60
2023-02-27T02:49:57.759Z,2.45
2023-02-27T02:52:31.882Z,2.78
2023-02-27T02:55:08.768Z,2.30
2023-02-27T02:57:40.722Z,2.50
2023-02-27T03:00:13.197Z,2.60
2023-02-27T03:02:46.058Z,2.40
2023-02-27T03:05:19.877Z,2.63
2023-02-27T03:07:53.714Z,2.08
2023-02-27T03:10:29.924Z,2.55
2023-02-27T03:13:01.827Z,2.58
2023-02-27T03:15:38.586Z,2.70
2023-02-27T03:18:10.273Z,3.33
2023-02-27T03:20:41.369Z,2.42
2023-02-27T03:23:14.363Z,2.60
2023-02-27T03:25:45.916Z,2.33
2023-02-27T03:28:17.287Z,2.58
2023-02-27T03:30:50.360Z,2.40
2023-02-27T03:33:22.657Z,2.65
2023-02-27T03:35:56.111Z,2.60
2023-02-27T03:38:31.814Z,2.55
2023-02-27T03:41:09.220Z,2.65
2023-02-27T03:43:42.886Z,2.50
2023-02-27T03:46:12.706Z,2.78
2023-02-27T03:48:40.152Z,2.50
2023-02-27T03:51:17.470Z,2.95
2023-02-27T03:53:49.380Z,2.72
2023-02-27T03:56:23.412Z,2.47
2023-02-27T03:58:50.988Z,2.60
2023-02-27T04:01:18.041Z,2.85
2023-02-27T04:03:51.713Z,2.50
2023-02-27T04:06:18.877Z,3.00
2023-02-27T04:08:56.841Z,3.10
2023-02-27T04:11:47.590Z,2.97
2023-02-27T04:14:49.824Z,2.78
2023-02-27T04:17:23.020Z,3.03
2023-02-27T04:20:11.194Z,2.83
2023-02-27T04:22:41.708Z,2.72
2023-02-27T04:25:25.027Z,2.80
2023-02-27T04:27:58.749Z,3.20
2023-02-27T04:30:34.906Z,3.03
2023-02-27T04:33:09.729Z,2.83
2023-02-27T04:35:44.100Z,3.30
2023-02-27T04:38:17.422Z,2.95
2023-02-27T04:40:50.444Z,3.00
2023-02-27T04:43:21.206Z,3.10
2023-02-27T04:45:49.772Z,3.33
2023-02-27T04:48:20.800Z,3.25
2023-02-27T04:50:52.594Z,3.17
2023-02-27T04:53:24.245Z,3.53
2023-02-27T04:55:54.434Z,3.28
2023-02-27T04:58:26.544Z,3.20
2023-02-27T05:00:59.437Z,3.05
2023-02-27T05:03:31.250Z,3.47
2023-02-27T05:06:01.507Z,3.63
2023-02-27T05:08:37.937Z,3.38
2023-02-27T05:11:10.616Z,3.22
2023-02-27T05:13:43.547Z,3.55
2023-02-27T05:16:18.825Z,3.38
2023-02-27T05:18:46.413Z,3.60
2023-02-27T05:21:23.519Z,3.10
2023-02-27T05:24:00.472Z,3.15
2023-02-27T05:26:38.924Z,3.28
2023-02-27T05:29:24.391Z,3.45
2023-02-27T05:31:57.062Z,3.45
2023-02-27T05:34:28.184Z,3.90
2023-02-27T05:37:00.168Z,3.53
2023-02-27T05:39:30.617Z,3.63
2023-02-27T05:42:01.467Z,3.97
2023-02-27T05:44:33.293Z,3.80
2023-02-27T05:47:04.747Z,3.70
2023-02-27T05:49:34.059Z,3.95
2023-02-27T05:52:04.141Z,3.78
2023-02-27T05:54:42.813Z,4.00
2023-02-27T05:57:14.453Z,4.00
2023-02-27T05:59:49.133Z,4.55
2023-02-27T06:02:17.208Z,4.60
2023-02-27T06:04:44.209Z,4.28
2023-02-27T06:07:13.568Z,3.95
2023-02-27T06:09:40.728Z,4.53
2023-02-27T06:12:08.449Z,4.75
2023-02-27T06:14:35.835Z,4.38
2023-02-27T06:17:04.322Z,4.25
2023-02-27T06:19:31.333Z,4.88
2023-02-27T06:22:00.595Z,4.45
2023-02-27T06:24:27.538Z,4.55
2023-02-27T06:26:54.571Z,4.30
2023-02-27T06:29:21.619Z,4.35
2023-02-27T06:31:48.983Z,4.53
2023-02-27T06:34:17.741Z,4.85
2023-02-27T06:36:44.882Z,4.72
2023-02-27T06:39:11.938Z,4.80
2023-02-27T06:41:38.939Z,4.40
2023-02-27T06:44:06.590Z,4.97
2023-02-27T06:46:33.873Z,5.30
2023-02-27T06:49:01.173Z,5.10
2023-02-27T06:51:29.553Z,4.97
2023-02-27T06:53:56.611Z,4.70
2023-02-27T06:56:23.897Z,5.07
2023-02-27T06:58:51.021Z,4.68
2023-02-27T07:01:18.637Z,4.85
2023-02-27T07:03:46.032Z,4.82
2023-02-27T07:06:13.314Z,4.90
2023-02-27T07:09:00.856Z,4.68
2023-02-27T07:11:28.842Z,4.78
2023-02-27T07:13:56.028Z,5.40
2023-02-27T07:16:23.349Z,4.93
2023-02-27T07:18:50.493Z,5.03
2023-02-27T07:21:17.548Z,4.78
2023-02-27T07:23:45.974Z,4.78
2023-02-27T07:26:13.095Z,4.68
2023-02-27T07:28:40.200Z,5.47
2023-02-27T07:31:07.335Z,5.32
2023-02-27T07:33:34.484Z,4.80
2023-02-27T07:36:01.593Z,5.20
2023-02-27T07:38:28.957Z,5.10
2023-02-27T07:40:57.461Z,5.13
2023-02-27T07:43:24.513Z,5.10
2023-02-27T07:45:51.599Z,5.70
2023-02-27T07:48:19.791Z,5.68
2023-02-27T07:50:47.088Z,5.47
2023-02-27T07:53:14.985Z,5.15
2023-02-27T07:55:42.172Z,5.68
2023-02-27T07:58:10.502Z,5.90
2023-02-27T08:00:37.547Z,5.47
2023-02-27T08:03:04.984Z,5.50
2023-02-27T08:05:32.057Z,5.93
2023-02-27T08:07:59.122Z,6.70
2023-02-27T08:10:26.414Z,6.25
2023-02-27T08:12:53.577Z,5.57
2023-02-27T08:15:22.130Z,6.28
2023-02-27T08:17:49.169Z,6.55
2023-02-27T08:20:17.075Z,5.90
2023-02-27T08:22:47.102Z,6.43
2023-02-27T08:25:14.630Z,6.03
2023-02-27T08:27:41.789Z,6.28
2023-02-27T08:30:12.524Z,6.10
2023-02-27T08:32:41.041Z,6.35
2023-02-27T08:35:08.900Z,6.38
2023-02-27T08:37:36.220Z,6.05
2023-02-27T08:40:03.756Z,6.18
2023-02-27T08:42:30.801Z,5.85
2023-02-27T08:44:58.024Z,5.90
2023-02-27T08:47:25.201Z,6.05
2023-02-27T08:49:53.668Z,5.22
2023-02-27T08:52:21.417Z,6.20
2023-02-27T08:54:49.588Z,5.60
2023-02-27T08:57:17.054Z,6.07
2023-02-27T08:59:44.145Z,5.57
2023-02-27T09:02:11.587Z,5.82
2023-02-27T09:04:38.626Z,6.32
2023-02-27T09:07:07.113Z,5.80
2023-02-27T09:09:34.326Z,5.47
2023-02-27T09:12:01.420Z,5.32
2023-02-27T09:14:28.374Z,5.78
2023-02-27T09:16:55.444Z,5.63
2023-02-27T09:19:22.520Z,5.43
2023-02-27T09:21:49.697Z,5.90
2023-02-27T09:24:20.604Z,5.40
2023-02-27T09:26:48.798Z,4.70
2023-02-27T09:29:19.250Z,5.03
2023-02-27T09:31:46.425Z,4.80
2023-02-27T09:34:18.890Z,4.90
2023-02-27T09:36:45.858Z,4.47
2023-02-27T09:39:12.924Z,5.07
2023-02-27T09:41:56.995Z,4.43
2023-02-27T09:44:46.175Z,4.55
2023-02-27T09:47:19.054Z,3.92
2023-02-27T09:50:05.301Z,3.80
2023-02-27T09:52:35.377Z,3.70
2023-02-27T09:55:03.057Z,3.90
2023-02-27T09:57:44.670Z,4.13
2023-02-27T10:00:34.340Z,3.88
2023-02-27T10:03:16.798Z,3.40
2023-02-27T10:05:51.086Z,3.42
2023-02-27T10:08:28.338Z,3.30
2023-02-27T10:11:01.760Z,3.22
2023-02-27T10:13:50.881Z,3.30
2023-02-27T10:16:20.889Z,2.85
2023-02-27T10:18:54.239Z,3.13
2023-02-27T10:21:25.741Z,3.13
2023-02-27T10:23:58.259Z,2.90
2023-02-27T10:26:27.597Z,3.53
2023-02-27T10:28:56.503Z,3.00
2023-02-27T10:31:27.625Z,2.88
2023-02-27T10:33:56.872Z,3.40
2023-02-27T10:36:33.594Z,3.22
2023-02-27T10:39:05.532Z,3.42
2023-02-27T10:41:32.737Z,3.45
2023-02-27T10:44:01.592Z,3.22
2023-02-27T10:46:31.715Z,3.88
2023-02-27T10:48:59.510Z,3.53
2023-02-27T10:51:29.086Z,3.05
2023-02-27T10:54:15.324Z,3.20
2023-02-27T10:56:47.485Z,3.70
2023-02-27T10:59:25.355Z,3.10
2023-02-27T11:01:54.730Z,2.97
2023-02-27T11:04:28.375Z,3.38
2023-02-27T11:06:55.883Z,3.83
2023-02-27T11:09:26.295Z,3.35
2023-02-27T11:11:54.010Z,2.85
2023-02-27T11:14:28.838Z,3.25
2023-02-27T11:16:57.899Z,3.17
2023-02-27T11:19:29.675Z,2.92
2023-02-27T11:22:06.287Z,6.60
2023-02-27T11:24:34.391Z,3.00
2023-02-27T11:27:03.414Z,3.28
2023-02-27T11:29:33.339Z,2.58
2023-02-27T11:32:04.098Z,2.85
2023-02-27T11:34:32.928Z,5.38
2023-02-27T11:37:02.314Z,2.88
2023-02-27T11:39:36.318Z,2.92
2023-02-27T11:42:17.470Z,3.10
2023-02-27T11:44:58.539Z,2.85
2023-02-27T11:47:29.951Z,2.60
2023-02-27T11:50:33.543Z,2.45
2023-02-27T11:53:30.878Z,2.50
2023-02-27T11:56:01.113Z,2.80
2023-02-27T11:58:32.740Z,2.75
2023-02-27T12:01:05.825Z,2.65
2023-02-27T12:03:50.266Z,2.80
2023-02-27T12:06:21.521Z,2.90
2023-02-27T12:08:52.572Z,2.40
2023-02-27T12:11:25.052Z,2.60
2023-02-27T12:14:04.123Z,2.75
2023-02-27T12:16:40.226Z,2.63
2023-02-27T12:19:16.315Z,3.05
2023-02-27T12:21:46.965Z,2.90
2023-02-27T12:24:23.929Z,3.00
2023-02-27T12:27:00.497Z,2.88
2023-02-27T12:29:33.034Z,2.85
2023-02-27T12:32:09.663Z,2.70
2023-02-27T12:34:42.315Z,2.80
2023-02-27T12:37:12.731Z,2.75
2023-02-27T12:39:42.277Z,2.90
2023-02-27T12:42:43.175Z,3.60
2023-02-27T12:45:42.066Z,3.20
2023-02-27T12:48:19.071Z,3.40
2023-02-27T12:50:57.761Z,3.38
2023-02-27T12:53:40.702Z,2.67
2023-02-27T12:56:13.927Z,2.90
2023-02-27T12:58:50.017Z,3.10
2023-02-27T13:01:26.645Z,2.60
2023-02-27T13:04:00.101Z,3.00
2023-02-27T13:06:32.911Z,2.53
2023-02-27T13:09:23.866Z,2.80
2023-02-27T13:11:58.441Z,3.15
2023-02-27T13:14:41.819Z,2.90
2023-02-27T13:17:17.424Z,2.28
2023-02-27T13:19:52.033Z,2.45
2023-02-27T13:22:30.161Z,2.67
2023-02-27T13:25:00.419Z,2.53
2023-02-27T13:27:32.594Z,3.22
2023-02-27T13:30:13.968Z,2.92
2023-02-27T13:32:46.864Z,3.00
2023-02-27T13:35:29.334Z,2.63
2023-02-27T13:37:58.096Z,2.70
2023-02-27T13:40:34.852Z,2.30
2023-02-27T13:43:05.921Z,3.03
2023-02-27T13:45:53.901Z,2.85
2023-02-27T13:48:43.857Z,2.30
2023-02-27T13:51:53.521Z,2.35
2023-02-27T13:54:31.128Z,1.88
2023-02-27T13:57:24.294Z,2.65
2023-02-27T14:00:00.622Z,2.47
2023-02-27T14:02:57.811Z,2.72
2023-02-27T14:05:33.725Z,2.85
2023-02-27T14:08:07.973Z,2.83
2023-02-27T14:10:37.182Z,2.88
2023-02-27T14:13:05.037Z,2.65
2023-02-27T14:15:52.379Z,2.67
2023-02-27T14:18:48.283Z,2.97
2023-02-27T14:21:48.525Z,2.17
2023-02-27T14:24:18.598Z,2.35
2023-02-27T14:26:46.069Z,2.15
2023-02-27T14:29:19.103Z,2.55
2023-02-27T14:31:47.082Z,2.70
2023-02-27T14:34:17.943Z,2.75
2023-02-27T14:36:48.475Z,3.25
2023-02-27T14:39:22.462Z,2.60
2023-02-27T14:42:09.264Z,2.67
2023-02-27T14:44:41.325Z,2.35
2023-02-27T14:47:14.566Z,2.40
2023-02-27T14:49:42.718Z,2.38
2023-02-27T14:52:18.048Z,2.38
2023-02-27T14:54:47.044Z,2.47
2023-02-27T14:57:19.832Z,2.30
2023-02-27T14:59:48.527Z,2.33
2023-02-27T15:02:25.192Z,2.42
2023-02-27T15:04:56.093Z,2.55
2023-02-27T15:07:24.528Z,2.65
2023-02-27T15:09:55.367Z,2.58
2023-02-27T15:12:23.479Z,2.65
2023-02-27T15:14:53.206Z,2.30
2023-02-27T15:17:22.645Z,2.35
2023-02-27T15:19:51.785Z,2.55
2023-02-27T15:22:37.552Z,2.40
2023-02-27T15:25:22.848Z,2.30
2023-02-27T15:27:50.224Z,2.55
2023-02-27T15:30:20.871Z,2.45
2023-02-27T15:32:47.931Z,2.33
2023-02-27T15:35:18.895Z,2.00
2023-02-27T15:37:50.883Z,2.40
2023-02-27T15:40:23.346Z,1.92
2023-02-27T15:42:52.347Z,2.30
2023-02-27T15:45:21.247Z,2.17
2023-02-27T15:47:49.009Z,2.40
2023-02-27T15:50:26.727Z,2.42
2023-02-27T15:52:58.601Z,2.55
2023-02-27T15:55:30.258Z,2.22
2023-02-27T15:58:03.205Z,2.28
2023-02-27T16:00:31.647Z,2.25
2023-02-27T16:02:59.500Z,2.47
2023-02-27T16:05:30.396Z,2.35
2023-02-27T16:07:57.385Z,2.20
2023-02-27T16:10:27.945Z,2.40
2023-02-27T16:12:55.451Z,2.00
2023-02-27T16:15:27.116Z,2.80
2023-02-27T16:17:55.997Z,2.25
2023-02-27T16:20:31.444Z,2.67
2023-02-27T16:23:02.200Z,3.10
2023-02-27T16:25:31.019Z,3.00
2023-02-27T16:27:58.231Z,3.15
2023-02-27T16:30:25.598Z,2.92
2023-02-27T16:33:00.454Z,3.00
2023-02-27T16:35:28.510Z,3.17
2023-02-27T16:38:01.446Z,2.80
2023-02-27T16:40:30.174Z,3.00
2023-02-27T16:42:57.416Z,2.90
2023-02-27T16:45:30.025Z,3.13
2023-02-27T16:47:59.165Z,2.83
2023-02-27T16:50:29.846Z,2.90
2023-02-27T16:52:56.826Z,2.90
2023-02-27T16:55:24.162Z,3.30
2023-02-27T16:57:52.752Z,3.60
2023-02-27T17:00:21.236Z,3.40
2023-02-27T17:02:48.342Z,3.33
2023-02-27T17:05:16.063Z,3.13
2023-02-27T17:07:43.719Z,3.17
2023-02-27T17:10:15.599Z,3.45
2023-02-27T17:12:45.622Z,3.60
2023-02-27T17:15:14.336Z,3.70
2023-02-27T17:17:41.449Z,3.33
2023-02-27T17:20:10.044Z,3.08
2023-02-27T17:22:37.198Z,3.28
2023-02-27T17:25:08.376Z,3.33
2023-02-27T17:27:35.711Z,3.20
2023-02-27T17:30:03.268Z,3.70
2023-02-27T17:32:31.762Z,3.53
2023-02-27T17:34:58.918Z,3.20
2023-02-27T17:37:26.270Z,3.40
2023-02-27T17:39:53.321Z,3.90
2023-02-27T17:42:20.394Z,6.53
2023-02-27T17:44:47.615Z,4.25
2023-02-27T17:47:18.010Z,4.20
2023-02-27T17:49:47.083Z,4.13
2023-02-27T17:52:14.272Z,5.00
2023-02-27T17:54:44.280Z,4.65
2023-02-27T17:57:11.533Z,4.05
2023-02-27T17:59:38.965Z,4.18
2023-02-27T18:02:09.293Z,4.57
2023-02-27T18:04:37.022Z,4.90
2023-02-27T18:07:05.891Z,6.13
2023-02-27T18:09:33.432Z,5.05
2023-02-27T18:12:00.536Z,4.78
2023-02-27T18:14:27.777Z,5.18
2023-02-27T18:16:54.924Z,5.28
2023-02-27T18:19:22.173Z,6.45
2023-02-27T18:21:52.006Z,6.93
2023-02-27T18:24:20.713Z,6.35
2023-02-27T18:26:47.931Z,5.68
2023-02-27T18:29:15.204Z,6.47
2023-02-27T18:31:44.240Z,6.03
2023-02-27T18:34:12.968Z,6.15
2023-02-27T18:36:40.852Z,6.80
2023-02-27T18:39:12.901Z,7.70
2023-02-27T18:41:44.449Z,7.20
2023-02-27T18:44:12.016Z,5.80
2023-02-27T18:46:39.768Z,6.20
2023-02-27T18:49:07.101Z,6.43
2023-02-27T18:51:34.313Z,6.97
2023-02-27T18:54:01.785Z,6.05
2023-02-27T18:56:29.410Z,6.43
2023-02-27T18:59:00.932Z,6.22
2023-02-27T19:01:32.031Z,5.72
2023-02-27T19:04:00.994Z,6.25
2023-02-27T19:06:28.601Z,6.15
2023-02-27T19:08:55.955Z,6.60
2023-02-27T19:11:24.323Z,6.50
2023-02-27T19:13:51.617Z,7.53
2023-02-27T19:16:20.219Z,8.85
2023-02-27T19:18:48.555Z,7.20
2023-02-27T19:21:15.720Z,6.07
2023-02-27T19:23:42.694Z,6.20
2023-02-27T19:26:09.711Z,5.45
2023-02-27T19:28:36.785Z,6.10
2023-02-27T19:31:06.968Z,5.47
2023-02-27T19:33:35.374Z,5.70
2023-02-27T19:36:05.895Z,5.03
2023-02-27T19:38:32.993Z,5.00
2023-02-27T19:41:01.400Z,5.20
2023-02-27T19:43:28.418Z,5.45
2023-02-27T19:45:55.472Z,5.45
2023-02-27T19:48:22.518Z,5.53
2023-02-27T19:50:50.996Z,5.85
2023-02-27T19:53:17.968Z,5.68
2023-02-27T19:55:44.926Z,5.53
2023-02-27T19:58:11.890Z,4.80
2023-02-27T20:00:40.273Z,10.88
2023-02-27T20:03:07.389Z,10.88
2023-02-27T20:05:38.011Z,14.38
2023-02-27T20:08:06.602Z,5.82
2023-02-27T20:10:33.621Z,5.18
2023-02-27T20:13:00.694Z,5.38
2023-02-27T20:15:28.066Z,5.78
2023-02-27T20:17:55.234Z,5.40
2023-02-27T20:20:22.239Z,5.38
2023-02-27T20:22:49.676Z,5.10
2023-02-27T20:25:18.578Z,5.72
2023-02-27T20:27:45.899Z,6.10
2023-02-27T20:30:13.298Z,6.35
2023-02-27T20:32:40.466Z,6.68
2023-02-27T20:35:08.313Z,6.03
2023-02-27T20:37:35.378Z,6.88
2023-02-27T20:40:02.502Z,6.85
2023-02-27T20:42:30.930Z,7.30
2023-02-27T20:44:58.136Z,7.13
2023-02-27T20:47:25.194Z,6.50
2023-02-27T20:49:52.240Z,6.68
2023-02-27T20:52:19.285Z,6.75
2023-02-27T20:54:46.339Z,6.75
2023-02-27T20:57:13.407Z,7.10
2023-02-27T20:59:41.780Z,6.38
2023-02-27T21:02:10.085Z,7.15
2023-02-27T21:04:37.464Z,6.40
2023-02-27T21:07:04.551Z,6.53
2023-02-27T21:09:31.533Z,6.28
2023-02-27T21:11:58.572Z,5.80
2023-02-27T21:14:25.679Z,6.40
2023-02-27T21:16:54.093Z,6.22
2023-02-27T21:19:21.785Z,6.65
2023-02-27T21:21:48.833Z,10.07
2023-02-27T21:24:16.152Z,5.85
2023-02-27T21:26:43.352Z,7.32
2023-02-27T21:29:12.674Z,6.82
2023-02-27T21:31:41.108Z,6.55
2023-02-27T21:34:12.769Z,7.93
2023-02-27T21:36:41.746Z,6.90
2023-02-27T21:39:11.404Z,7.22
2023-02-27T21:41:38.573Z,7.97
2023-02-27T21:44:07.904Z,8.18
2023-02-27T21:46:35.627Z,7.32
2023-02-27T21:49:02.721Z,10.05
2023-02-27T21:51:40.141Z,7.13
2023-02-27T21:54:10.449Z,9.00
2023-02-27T21:56:37.910Z,7.15
2023-02-27T21:59:04.968Z,7.93
2023-02-27T22:01:33.107Z,8.43
2023-02-27T22:04:00.708Z,7.85
2023-02-27T22:06:31.254Z,10.80
2023-02-27T22:08:59.780Z,8.52
2023-02-27T22:11:28.231Z,8.60
2023-02-27T22:13:55.795Z,8.18
2023-02-27T22:16:23.283Z,7.55
2023-02-27T22:18:50.526Z,8.88
2023-02-27T22:21:19.030Z,7.90
2023-02-27T22:23:47.984Z,8.48
2023-02-27T22:26:17.635Z,7.90
2023-02-27T22:28:44.899Z,7.90
2023-02-27T22:31:14.356Z,7.57
2023-02-27T22:33:42.890Z,7.97
2023-02-27T22:36:11.799Z,7.45
2023-02-27T22:38:38.845Z,8.35
2023-02-27T22:41:10.120Z,7.55
2023-02-27T22:43:37.790Z,8.25
2023-02-27T22:46:05.368Z,9.27
2023-02-27T22:48:32.884Z,9.02
2023-02-27T22:51:00.998Z,8.90
2023-02-27T22:53:28.355Z,8.73
2023-02-27T22:55:56.414Z,8.65
2023-02-27T22:58:25.197Z,8.40
2023-02-27T23:00:52.477Z,9.27
2023-02-27T23:03:19.537Z,8.95
2023-02-27T23:05:47.488Z,9.13
2023-02-27T23:08:14.952Z,9.38
2023-02-27T23:10:42.711Z,8.05
2023-02-27T23:13:09.875Z,8.13
2023-02-27T23:15:38.256Z,8.77
2023-02-27T23:18:06.127Z,8.38
2023-02-27T23:20:37.173Z,7.88
2023-02-27T23:23:04.430Z,8.20
2023-02-27T23:25:32.293Z,8.68
2023-02-27T23:27:59.386Z,8.32
2023-02-27T23:30:26.515Z,8.15
2023-02-27T23:32:55.398Z,8.43
2023-02-27T23:35:23.272Z,8.15
2023-02-27T23:37:50.658Z,9.20
2023-02-27T23:40:18.137Z,8.30
2023-02-27T23:42:45.176Z,8.20
2023-02-27T23:45:13.300Z,7.20
2023-02-27T23:47:40.558Z,7.57
2023-02-27T23:50:10.741Z,7.88
2023-02-27T23:52:37.766Z,7.75
2023-02-27T23:55:06.036Z,7.97
2023-02-27T23:57:33.092Z,7.95
